createdAt,value
2018-10-16T00:00:03.845Z,1010.77
2018-10-16T00:01:12.489Z,1010.77
2018-10-16T00:02:21.154Z,1010.78
2018-10-16T00:03:29.875Z,1010.84
2018-10-16T00:04:39.006Z,1010.81
2018-10-16T00:05:47.763Z,1010.85
2018-10-16T00:06:56.406Z,1010.83
2018-10-16T00:08:05.050Z,1010.86
2018-10-16T00:09:13.707Z,1010.87
2018-10-16T00:10:22.350Z,1010.88
2018-10-16T00:11:31.533Z,1010.88
2018-10-16T00:12:40.169Z,1010.88
2018-10-16T00:13:48.817Z,1010.9
2018-10-16T00:14:57.457Z,1010.9
2018-10-16T00:16:06.106Z,1010.92
2018-10-16T00:17:14.740Z,1010.88
2018-10-16T00:18:23.407Z,1010.91
2018-10-16T00:19:32.038Z,1010.91
2018-10-16T00:20:40.682Z,1010.95
2018-10-16T00:21:49.317Z,1010.92
2018-10-16T00:22:57.961Z,1010.91
2018-10-16T00:24:06.610Z,1010.95
2018-10-16T00:25:15.259Z,1010.94
2018-10-16T00:26:23.904Z,1010.93
2018-10-16T00:27:32.542Z,1010.97
2018-10-16T00:28:41.187Z,1010.91
2018-10-16T00:29:50.355Z,1010.96
2018-10-16T00:30:59.002Z,1010.98
2018-10-16T00:32:07.642Z,1010.97
2018-10-16T00:33:16.285Z,1010.96
2018-10-16T00:34:24.929Z,1011.01
2018-10-16T00:35:33.579Z,1011.04
2018-10-16T00:36:42.220Z,1011.04
2018-10-16T00:37:51.397Z,1011
2018-10-16T00:39:00.040Z,1011.03
2018-10-16T00:40:08.690Z,1011.02
2018-10-16T00:41:17.331Z,1011.01
2018-10-16T00:42:26.241Z,1011.02
2018-10-16T00:43:34.884Z,1011.04
2018-10-16T00:44:43.529Z,1011.02
2018-10-16T00:45:52.179Z,1011.02
2018-10-16T00:47:00.833Z,1011.04
2018-10-16T00:48:09.471Z,1011.03
2018-10-16T00:49:18.115Z,1011.05
2018-10-16T00:50:27.025Z,1011.05
2018-10-16T00:51:35.672Z,1011.1
2018-10-16T00:52:44.314Z,1011.09
2018-10-16T00:53:52.952Z,1011.11
2018-10-16T00:55:01.662Z,1011.08
2018-10-16T00:56:10.246Z,1011.08
2018-10-16T00:57:18.891Z,1011.13
2018-10-16T00:58:27.531Z,1011.13
2018-10-16T00:59:36.177Z,1011.14
2018-10-16T01:00:44.823Z,1011.16
2018-10-16T01:01:53.465Z,1011.1
2018-10-16T01:03:02.374Z,1011.11
2018-10-16T01:04:11.536Z,1011.14
2018-10-16T01:05:20.448Z,1011.11
2018-10-16T01:06:29.094Z,1011.12
2018-10-16T01:07:38.279Z,1011.15
2018-10-16T01:08:46.921Z,1011.16
2018-10-16T01:09:55.565Z,1011.18
2018-10-16T01:11:04.210Z,1011.18
2018-10-16T01:12:12.861Z,1011.19
2018-10-16T01:13:21.501Z,1011.2
2018-10-16T01:14:30.146Z,1011.22
2018-10-16T01:15:38.793Z,1011.24
2018-10-16T01:16:47.448Z,1011.25
2018-10-16T01:17:56.358Z,1011.23
2018-10-16T01:19:05.003Z,1011.25
2018-10-16T01:20:13.916Z,1011.25
2018-10-16T01:21:22.553Z,1011.27
2018-10-16T01:22:31.199Z,1011.27
2018-10-16T01:23:39.840Z,1011.28
2018-10-16T01:24:48.487Z,1011.28
2018-10-16T01:25:57.137Z,1011.31
2018-10-16T01:27:05.778Z,1011.31
2018-10-16T01:28:14.421Z,1011.31
2018-10-16T01:29:23.066Z,1011.31
2018-10-16T01:30:31.713Z,1011.34
2018-10-16T01:31:40.359Z,1011.31
2018-10-16T01:32:49.002Z,1011.32
2018-10-16T01:33:57.650Z,1011.33
2018-10-16T01:35:06.564Z,1011.32
2018-10-16T01:36:15.207Z,1011.35
2018-10-16T01:37:23.851Z,1011.34
2018-10-16T01:38:32.493Z,1011.34
2018-10-16T01:39:41.135Z,1011.38
2018-10-16T01:40:49.785Z,1011.4
2018-10-16T01:41:58.435Z,1011.4
2018-10-16T01:43:07.080Z,1011.36
2018-10-16T01:44:15.721Z,1011.39
2018-10-16T01:45:24.367Z,1011.38
2018-10-16T01:46:33.013Z,1011.41
2018-10-16T01:47:41.658Z,1011.39
2018-10-16T01:48:50.305Z,1011.39
2018-10-16T01:49:58.949Z,1011.41
2018-10-16T01:51:07.600Z,1011.41
2018-10-16T01:52:16.515Z,1011.38
2018-10-16T01:53:25.156Z,1011.41
2018-10-16T01:54:33.805Z,1011.41
2018-10-16T01:55:42.449Z,1011.42
2018-10-16T01:56:51.097Z,1011.42
2018-10-16T01:57:59.746Z,1011.42
2018-10-16T01:59:08.389Z,1011.46
2018-10-16T02:00:17.034Z,1011.46
2018-10-16T02:01:25.677Z,1011.4
2018-10-16T02:02:34.449Z,1011.48
2018-10-16T02:03:42.966Z,1011.46
2018-10-16T02:04:51.612Z,1011.46
2018-10-16T02:06:00.518Z,1011.47
2018-10-16T02:07:09.167Z,1011.43
2018-10-16T02:08:17.807Z,1011.44
2018-10-16T02:09:26.457Z,1011.47
2018-10-16T02:10:35.100Z,1011.4
2018-10-16T02:11:43.751Z,1011.43
2018-10-16T02:12:52.392Z,1011.41
2018-10-16T02:14:01.038Z,1011.4
2018-10-16T02:15:09.679Z,1011.39
2018-10-16T02:16:18.323Z,1011.41
2018-10-16T02:17:26.969Z,1011.43
2018-10-16T02:18:35.614Z,1011.44
2018-10-16T02:19:44.260Z,1011.47
2018-10-16T02:20:53.163Z,1011.44
2018-10-16T02:22:01.816Z,1011.45
2018-10-16T02:23:10.462Z,1011.48
2018-10-16T02:24:19.110Z,1011.48
2018-10-16T02:25:27.747Z,1011.5
2018-10-16T02:26:36.663Z,1011.47
2018-10-16T02:27:45.306Z,1011.49
2018-10-16T02:28:53.953Z,1011.49
2018-10-16T02:30:02.590Z,1011.53
2018-10-16T02:31:11.235Z,1011.53
2018-10-16T02:32:19.884Z,1011.58
2018-10-16T02:33:28.533Z,1011.57
2018-10-16T02:34:37.182Z,1011.62
2018-10-16T02:35:46.076Z,1011.56
2018-10-16T02:36:55.000Z,1011.55
2018-10-16T02:38:03.645Z,1011.57
2018-10-16T02:39:12.302Z,1011.57
2018-10-16T02:40:21.252Z,1011.58
2018-10-16T02:41:29.855Z,1011.57
2018-10-16T02:42:38.762Z,1011.63
2018-10-16T02:43:47.425Z,1011.62
2018-10-16T02:44:56.322Z,1011.61
2018-10-16T02:46:05.232Z,1011.61
2018-10-16T02:47:13.874Z,1011.62
2018-10-16T02:48:23.053Z,1011.62
2018-10-16T02:49:31.978Z,1011.61
2018-10-16T02:50:40.613Z,1011.58
2018-10-16T02:51:49.254Z,1011.63
2018-10-16T02:52:57.897Z,1011.63
2018-10-16T02:54:06.550Z,1011.64
2018-10-16T02:55:15.467Z,1011.6
2018-10-16T02:56:24.377Z,1011.64
2018-10-16T02:57:33.027Z,1011.63
2018-10-16T02:58:41.963Z,1011.61
2018-10-16T02:59:50.605Z,1011.6
2018-10-16T03:00:59.261Z,1011.59
2018-10-16T03:02:08.437Z,1011.6
2018-10-16T03:03:17.355Z,1011.58
2018-10-16T03:04:26.269Z,1011.61
2018-10-16T03:05:34.911Z,1011.59
2018-10-16T03:06:43.543Z,1011.59
2018-10-16T03:07:52.188Z,1011.61
2018-10-16T03:09:00.836Z,1011.62
2018-10-16T03:10:09.484Z,1011.63
2018-10-16T03:11:18.410Z,1011.67
2018-10-16T03:12:27.097Z,1011.64
2018-10-16T03:13:35.966Z,1011.68
2018-10-16T03:14:44.616Z,1011.67
2018-10-16T03:15:53.268Z,1011.65
2018-10-16T03:17:02.171Z,1011.7
2018-10-16T03:18:10.828Z,1011.7
2018-10-16T03:19:19.467Z,1011.75
2018-10-16T03:20:28.201Z,1011.76
2018-10-16T03:21:36.760Z,1011.77
2018-10-16T03:22:45.400Z,1011.75
2018-10-16T03:23:54.043Z,1011.79
2018-10-16T03:25:02.694Z,1011.78
2018-10-16T03:26:11.335Z,1011.8
2018-10-16T03:27:19.974Z,1011.77
2018-10-16T03:28:28.878Z,1011.77
2018-10-16T03:29:37.521Z,1011.79
2018-10-16T03:30:46.175Z,1011.8
2018-10-16T03:31:54.825Z,1011.85
2018-10-16T03:33:03.475Z,1011.81
2018-10-16T03:34:12.112Z,1011.86
2018-10-16T03:35:20.762Z,1011.84
2018-10-16T03:36:29.401Z,1011.85
2018-10-16T03:37:38.054Z,1011.85
2018-10-16T03:38:46.691Z,1011.87
2018-10-16T03:39:55.344Z,1011.89
2018-10-16T03:41:03.989Z,1011.91
2018-10-16T03:42:12.637Z,1011.96
2018-10-16T03:43:21.557Z,1011.92
2018-10-16T03:44:30.203Z,1011.93
2018-10-16T03:45:38.853Z,1011.99
2018-10-16T03:46:47.500Z,1011.97
2018-10-16T03:47:56.146Z,1012
2018-10-16T03:49:04.783Z,1012
2018-10-16T03:50:13.435Z,1011.99
2018-10-16T03:51:22.071Z,1011.98
2018-10-16T03:52:30.723Z,1012
2018-10-16T03:53:39.893Z,1011.99
2018-10-16T03:54:48.540Z,1012.01
2018-10-16T03:55:57.180Z,1012.04
2018-10-16T03:57:05.874Z,1012.07
2018-10-16T03:58:14.473Z,1012.08
2018-10-16T03:59:23.385Z,1012.11
2018-10-16T04:00:32.023Z,1012.05
2018-10-16T04:01:40.941Z,1012.05
2018-10-16T04:02:49.581Z,1012.04
2018-10-16T04:03:58.221Z,1012.06
2018-10-16T04:05:06.863Z,1012.04
2018-10-16T04:06:15.507Z,1012.03
2018-10-16T04:07:24.163Z,1012.06
2018-10-16T04:08:33.063Z,1012.07
2018-10-16T04:09:41.716Z,1012.07
2018-10-16T04:10:50.618Z,1012.09
2018-10-16T04:11:59.275Z,1012.11
2018-10-16T04:13:07.915Z,1012.16
2018-10-16T04:14:16.826Z,1012.17
2018-10-16T04:15:25.462Z,1012.16
2018-10-16T04:16:34.118Z,1012.17
2018-10-16T04:17:42.759Z,1012.16
2018-10-16T04:18:51.402Z,1012.19
2018-10-16T04:20:00.043Z,1012.21
2018-10-16T04:21:09.227Z,1012.17
2018-10-16T04:22:18.156Z,1012.19
2018-10-16T04:23:27.124Z,1012.16
2018-10-16T04:24:35.770Z,1012.16
2018-10-16T04:25:44.410Z,1012.16
2018-10-16T04:26:53.054Z,1012.14
2018-10-16T04:28:01.701Z,1012.14
2018-10-16T04:29:10.389Z,1012.12
2018-10-16T04:30:18.985Z,1012.1
2018-10-16T04:31:28.160Z,1012.12
2018-10-16T04:32:37.067Z,1012.14
2018-10-16T04:33:45.719Z,1012.08
2018-10-16T04:34:54.356Z,1012.1
2018-10-16T04:36:03.039Z,1012.07
2018-10-16T04:37:12.467Z,1012.07
2018-10-16T04:38:21.116Z,1012.06
2018-10-16T04:39:29.756Z,1012.09
2018-10-16T04:40:38.399Z,1012.09
2018-10-16T04:41:47.423Z,1012.13
2018-10-16T04:42:55.947Z,1012.09
2018-10-16T04:44:04.595Z,1012.09
2018-10-16T04:45:13.508Z,1012.11
2018-10-16T04:46:22.152Z,1012.12
2018-10-16T04:47:30.786Z,1012.12
2018-10-16T04:48:39.434Z,1012.13
2018-10-16T04:49:48.075Z,1012.12
2018-10-16T04:50:56.719Z,1012.12
2018-10-16T04:52:05.357Z,1012.17
2018-10-16T04:53:14.270Z,1012.13
2018-10-16T04:54:22.913Z,1012.17
2018-10-16T04:55:31.571Z,1012.19
2018-10-16T04:56:40.218Z,1012.19
2018-10-16T04:57:48.863Z,1012.21
2018-10-16T04:58:57.507Z,1012.2
2018-10-16T05:00:06.426Z,1012.19
2018-10-16T05:01:15.071Z,1012.2
2018-10-16T05:02:23.973Z,1012.19
2018-10-16T05:03:32.885Z,1012.16
2018-10-16T05:04:41.795Z,1012.18
2018-10-16T05:05:50.450Z,1012.17
2018-10-16T05:06:59.614Z,1012.18
2018-10-16T05:08:08.256Z,1012.16
2018-10-16T05:09:16.899Z,1012.19
2018-10-16T05:10:25.542Z,1012.18
2018-10-16T05:11:34.445Z,1012.17
2018-10-16T05:12:43.090Z,1012.2
2018-10-16T05:13:51.731Z,1012.2
2018-10-16T05:15:00.381Z,1012.19
2018-10-16T05:16:09.023Z,1012.21
2018-10-16T05:17:17.994Z,1012.2
2018-10-16T05:18:27.177Z,1012.23
2018-10-16T05:19:35.820Z,1012.27
2018-10-16T05:20:44.722Z,1012.26
2018-10-16T05:21:53.363Z,1012.28
2018-10-16T05:23:02.010Z,1012.29
2018-10-16T05:24:11.196Z,1012.32
2018-10-16T05:25:19.833Z,1012.35
2018-10-16T05:26:28.497Z,1012.34
2018-10-16T05:27:37.116Z,1012.36
2018-10-16T05:28:45.765Z,1012.4
2018-10-16T05:29:54.671Z,1012.4
2018-10-16T05:31:03.396Z,1012.41
2018-10-16T05:32:12.346Z,1012.41
2018-10-16T05:33:21.256Z,1012.45
2018-10-16T05:34:29.897Z,1012.41
2018-10-16T05:35:38.541Z,1012.44
2018-10-16T05:36:47.184Z,1012.44
2018-10-16T05:37:56.087Z,1012.41
2018-10-16T05:39:04.741Z,1012.45
2018-10-16T05:40:13.705Z,1012.47
2018-10-16T05:41:22.354Z,1012.46
2018-10-16T05:42:30.993Z,1012.51
2018-10-16T05:43:39.642Z,1012.51
2018-10-16T05:44:48.287Z,1012.49
2018-10-16T05:45:57.194Z,1012.52
2018-10-16T05:47:06.099Z,1012.54
2018-10-16T05:48:14.747Z,1012.53
2018-10-16T05:49:23.387Z,1012.56
2018-10-16T05:50:32.299Z,1012.58
2018-10-16T05:51:40.940Z,1012.6
2018-10-16T05:52:49.593Z,1012.6
2018-10-16T05:53:58.228Z,1012.61
2018-10-16T05:55:07.422Z,1012.59
2018-10-16T05:56:16.067Z,1012.58
2018-10-16T05:57:24.713Z,1012.6
2018-10-16T05:58:33.358Z,1012.66
2018-10-16T05:59:42.001Z,1012.67
2018-10-16T06:00:50.651Z,1012.65
2018-10-16T06:01:59.286Z,1012.64
2018-10-16T06:03:08.199Z,1012.68
2018-10-16T06:04:16.842Z,1012.72
2018-10-16T06:05:25.523Z,1012.68
2018-10-16T06:06:34.453Z,1012.7
2018-10-16T06:07:43.102Z,1012.71
2018-10-16T06:08:52.006Z,1012.72
2018-10-16T06:10:00.918Z,1012.7
2018-10-16T06:11:09.826Z,1012.72
2018-10-16T06:12:18.527Z,1012.73
2018-10-16T06:13:27.112Z,1012.76
2018-10-16T06:14:35.755Z,1012.79
2018-10-16T06:15:44.406Z,1012.81
2018-10-16T06:16:53.372Z,1012.77
2018-10-16T06:18:02.023Z,1012.73
2018-10-16T06:19:10.653Z,1012.8
2018-10-16T06:20:19.577Z,1012.82
2018-10-16T06:21:28.220Z,1012.82
2018-10-16T06:22:36.869Z,1012.81
2018-10-16T06:23:45.502Z,1012.84
2018-10-16T06:24:54.157Z,1012.84
2018-10-16T06:26:02.795Z,1012.87
2018-10-16T06:27:11.968Z,1012.85
2018-10-16T06:28:20.870Z,1012.88
2018-10-16T06:29:29.512Z,1012.87
2018-10-16T06:30:38.164Z,1012.86
2018-10-16T06:31:46.807Z,1012.85
2018-10-16T06:32:55.453Z,1012.87
2018-10-16T06:34:04.086Z,1012.87
2018-10-16T06:35:12.738Z,1012.9
2018-10-16T06:36:21.377Z,1012.89
2018-10-16T06:37:30.033Z,1012.91
2018-10-16T06:38:38.672Z,1012.91
2018-10-16T06:39:47.318Z,1012.88
2018-10-16T06:40:56.194Z,1012.85
2018-10-16T06:42:04.615Z,1012.88
2018-10-16T06:43:13.249Z,1012.88
2018-10-16T06:44:21.893Z,1012.92
2018-10-16T06:45:30.533Z,1012.91
2018-10-16T06:46:39.536Z,1012.93
2018-10-16T06:47:48.171Z,1012.93
2018-10-16T06:48:57.319Z,1012.93
2018-10-16T06:50:05.866Z,1012.91
2018-10-16T06:51:16.139Z,1012.91
2018-10-16T06:52:24.790Z,1012.93
2018-10-16T06:53:33.430Z,1012.88
2018-10-16T06:54:42.394Z,1012.9
2018-10-16T06:55:51.349Z,1012.92
2018-10-16T06:57:00.001Z,1012.92
2018-10-16T06:58:08.645Z,1012.95
2018-10-16T06:59:17.292Z,1012.93
2018-10-16T07:00:25.931Z,1012.93
2018-10-16T07:01:34.582Z,1012.95
2018-10-16T07:02:43.224Z,1012.95
2018-10-16T07:03:52.136Z,1012.95
2018-10-16T07:05:00.769Z,1012.97
2018-10-16T07:06:09.416Z,1012.96
2018-10-16T07:07:18.513Z,1012.97
2018-10-16T07:08:27.049Z,1012.99
2018-10-16T07:09:35.695Z,1012.99
2018-10-16T07:10:44.329Z,1013.01
2018-10-16T07:11:52.972Z,1013
2018-10-16T07:13:01.613Z,1013
2018-10-16T07:14:10.796Z,1013.03
2018-10-16T07:15:19.433Z,1013.05
2018-10-16T07:16:28.079Z,1013.05
2018-10-16T07:17:36.721Z,1013.1
2018-10-16T07:18:45.641Z,1013.14
2018-10-16T07:19:54.285Z,1013.18
2018-10-16T07:21:03.218Z,1013.16
2018-10-16T07:22:11.837Z,1013.21
2018-10-16T07:23:20.524Z,1013.23
2018-10-16T07:24:29.128Z,1013.21
2018-10-16T07:25:37.782Z,1013.24
2018-10-16T07:26:46.416Z,1013.22
2018-10-16T07:27:55.064Z,1013.24
2018-10-16T07:29:04.052Z,1013.23
2018-10-16T07:30:13.190Z,1013.2
2018-10-16T07:31:21.820Z,1013.22
2018-10-16T07:32:30.467Z,1013.22
2018-10-16T07:33:39.116Z,1013.2
2018-10-16T07:34:47.760Z,1013.22
2018-10-16T07:35:56.407Z,1013.26
2018-10-16T07:37:05.050Z,1013.22
2018-10-16T07:38:13.934Z,1013.22
2018-10-16T07:39:23.659Z,1013.19
2018-10-16T07:40:32.572Z,1013.2
2018-10-16T07:41:41.210Z,1013.25
2018-10-16T07:42:49.857Z,1013.26
2018-10-16T07:43:58.502Z,1013.27
2018-10-16T07:45:07.149Z,1013.26
2018-10-16T07:46:16.342Z,1013.28
2018-10-16T07:47:25.128Z,1013.34
2018-10-16T07:48:33.901Z,1013.32
2018-10-16T07:49:42.417Z,1013.33
2018-10-16T07:50:51.104Z,1013.3
2018-10-16T07:51:59.705Z,1013.37
2018-10-16T07:53:08.349Z,1013.35
2018-10-16T07:54:16.997Z,1013.31
2018-10-16T07:55:25.914Z,1013.34
2018-10-16T07:56:34.564Z,1013.34
2018-10-16T07:57:43.210Z,1013.33
2018-10-16T07:58:52.114Z,1013.31
2018-10-16T08:00:00.768Z,1013.32
2018-10-16T08:01:09.410Z,1013.36
2018-10-16T08:02:18.322Z,1013.4
2018-10-16T08:03:26.966Z,1013.42
2018-10-16T08:04:35.872Z,1013.42
2018-10-16T08:05:44.522Z,1013.46
2018-10-16T08:06:53.166Z,1013.48
2018-10-16T08:08:01.810Z,1013.45
2018-10-16T08:09:10.718Z,1013.45
2018-10-16T08:10:19.381Z,1013.47
2018-10-16T08:11:28.731Z,1013.46
2018-10-16T08:12:37.245Z,1013.46
2018-10-16T08:13:46.146Z,1013.44
2018-10-16T08:14:54.799Z,1013.45
2018-10-16T08:16:03.445Z,1013.41
2018-10-16T08:17:12.143Z,1013.42
2018-10-16T08:18:20.728Z,1013.42
2018-10-16T08:19:29.374Z,1013.38
2018-10-16T08:20:38.025Z,1013.41
2018-10-16T08:21:46.677Z,1013.37
2018-10-16T08:22:55.329Z,1013.39
2018-10-16T08:24:04.233Z,1013.43
2018-10-16T08:25:13.147Z,1013.4
2018-10-16T08:26:21.795Z,1013.47
2018-10-16T08:27:30.447Z,1013.47
2018-10-16T08:28:39.352Z,1013.49
2018-10-16T08:29:48.007Z,1013.52
2018-10-16T08:30:56.650Z,1013.53
2018-10-16T08:32:05.307Z,1013.5
2018-10-16T08:33:14.209Z,1013.48
2018-10-16T08:34:22.869Z,1013.51
2018-10-16T08:35:31.769Z,1013.51
2018-10-16T08:36:40.525Z,1013.46
2018-10-16T08:37:49.512Z,1013.46
2018-10-16T08:38:58.152Z,1013.44
2018-10-16T08:40:06.797Z,1013.45
2018-10-16T08:41:15.442Z,1013.4
2018-10-16T08:42:24.097Z,1013.44
2018-10-16T08:43:32.749Z,1013.46
2018-10-16T08:44:41.396Z,1013.41
2018-10-16T08:45:50.033Z,1013.47
2018-10-16T08:46:58.699Z,1013.47
2018-10-16T08:48:07.339Z,1013.44
2018-10-16T08:49:16.252Z,1013.46
2018-10-16T08:50:24.886Z,1013.48
2018-10-16T08:51:33.540Z,1013.51
2018-10-16T08:52:42.184Z,1013.55
2018-10-16T08:53:50.831Z,1013.54
2018-10-16T08:54:59.474Z,1013.54
2018-10-16T08:56:08.124Z,1013.58
2018-10-16T08:57:16.773Z,1013.61
2018-10-16T08:58:25.419Z,1013.57
2018-10-16T08:59:34.080Z,1013.6
2018-10-16T09:00:42.979Z,1013.59
2018-10-16T09:01:51.630Z,1013.59
2018-10-16T09:03:00.272Z,1013.63
2018-10-16T09:04:08.932Z,1013.59
2018-10-16T09:05:17.569Z,1013.65
2018-10-16T09:06:26.230Z,1013.67
2018-10-16T09:09:13.263Z,1013.66
2018-10-16T09:10:21.907Z,1013.68
2018-10-16T09:11:30.552Z,1013.66
2018-10-16T09:12:39.211Z,1013.69
2018-10-16T09:13:47.867Z,1013.7
2018-10-16T09:14:56.887Z,1013.68
2018-10-16T09:16:05.542Z,1013.69
2018-10-16T09:17:14.220Z,1013.64
2018-10-16T09:18:22.874Z,1013.63
2018-10-16T09:19:31.517Z,1013.63
2018-10-16T09:20:40.179Z,1013.66
2018-10-16T09:21:49.095Z,1013.65
2018-10-16T09:22:57.749Z,1013.65
2018-10-16T09:24:06.396Z,1013.69
2018-10-16T09:25:15.152Z,1013.66
2018-10-16T09:26:23.696Z,1013.69
2018-10-16T09:27:32.348Z,1013.73
2018-10-16T09:28:40.997Z,1013.74
2018-10-16T09:29:49.902Z,1013.73
2018-10-16T09:30:58.882Z,1013.73
2018-10-16T09:32:07.465Z,1013.76
2018-10-16T09:33:16.118Z,1013.76
2018-10-16T09:34:24.767Z,1013.78
2018-10-16T09:35:33.702Z,1013.77
2018-10-16T09:36:42.338Z,1013.82
2018-10-16T09:37:51.051Z,1013.83
2018-10-16T09:39:00.671Z,1013.83
2018-10-16T09:40:09.594Z,1013.84
2018-10-16T09:41:18.238Z,1013.84
2018-10-16T09:42:26.885Z,1013.81
2018-10-16T09:43:35.805Z,1013.8
2018-10-16T09:44:44.568Z,1013.77
2018-10-16T09:45:53.220Z,1013.79
2018-10-16T09:47:02.231Z,1013.78
2018-10-16T09:48:10.899Z,1013.79
2018-10-16T09:49:19.631Z,1013.83
2018-10-16T09:50:28.562Z,1013.85
2018-10-16T09:51:37.206Z,1013.84
2018-10-16T09:52:46.162Z,1013.85
2018-10-16T09:53:55.045Z,1013.89
2018-10-16T09:55:03.962Z,1013.89
2018-10-16T09:56:12.889Z,1013.89
2018-10-16T09:57:22.075Z,1013.91
2018-10-16T09:58:30.716Z,1013.93
2018-10-16T09:59:39.363Z,1013.93
2018-10-16T10:00:48.065Z,1013.91
2018-10-16T10:01:56.667Z,1013.95
2018-10-16T10:03:05.347Z,1013.94
2018-10-16T10:04:13.990Z,1013.93
2018-10-16T10:05:22.635Z,1013.97
2018-10-16T10:06:31.279Z,1013.94
2018-10-16T10:07:39.935Z,1013.95
2018-10-16T10:08:48.581Z,1013.94
2018-10-16T10:09:57.234Z,1013.91
2018-10-16T10:11:05.957Z,1013.93
2018-10-16T10:12:14.541Z,1013.96
2018-10-16T10:13:23.191Z,1013.95
2018-10-16T10:14:32.103Z,1013.97
2018-10-16T10:15:40.785Z,1013.94
2018-10-16T10:16:49.682Z,1013.96
2018-10-16T10:17:58.328Z,1013.96
2018-10-16T10:19:07.319Z,1013.95
2018-10-16T10:20:15.972Z,1013.92
2018-10-16T10:21:24.625Z,1013.93
2018-10-16T10:22:33.273Z,1013.94
2018-10-16T10:23:41.925Z,1013.9
2018-10-16T10:24:50.575Z,1013.88
2018-10-16T10:25:59.560Z,1013.9
2018-10-16T10:27:08.208Z,1013.93
2018-10-16T10:28:16.857Z,1013.95
2018-10-16T10:29:25.511Z,1013.91
2018-10-16T10:30:34.463Z,1013.93
2018-10-16T10:31:43.112Z,1013.92
2018-10-16T10:32:51.764Z,1013.94
2018-10-16T10:34:00.417Z,1013.88
2018-10-16T10:35:09.148Z,1013.92
2018-10-16T10:36:18.159Z,1013.9
2018-10-16T10:37:26.811Z,1013.91
2018-10-16T10:38:35.474Z,1013.88
2018-10-16T10:39:44.244Z,1013.93
2018-10-16T10:40:52.964Z,1013.88
2018-10-16T10:42:01.712Z,1013.89
2018-10-16T10:43:10.632Z,1013.85
2018-10-16T10:44:19.549Z,1013.88
2018-10-16T10:45:28.197Z,1013.85
2018-10-16T10:46:36.845Z,1013.84
2018-10-16T10:47:45.487Z,1013.88
2018-10-16T10:48:54.141Z,1013.84
2018-10-16T10:50:02.970Z,1013.84
2018-10-16T10:51:12.336Z,1013.85
2018-10-16T10:52:20.696Z,1013.85
2018-10-16T10:53:29.347Z,1013.85
2018-10-16T10:54:37.994Z,1013.87
2018-10-16T10:55:46.643Z,1013.85
2018-10-16T10:56:55.427Z,1013.85
2018-10-16T10:58:03.937Z,1013.82
2018-10-16T10:59:12.588Z,1013.81
2018-10-16T11:00:21.242Z,1013.79
2018-10-16T11:01:29.895Z,1013.83
2018-10-16T11:02:38.810Z,1013.83
2018-10-16T11:03:47.555Z,1013.84
2018-10-16T11:04:56.328Z,1013.81
2018-10-16T11:06:04.987Z,1013.82
2018-10-16T11:07:13.629Z,1013.85
2018-10-16T11:08:22.289Z,1013.81
2018-10-16T11:09:30.956Z,1013.8
2018-10-16T11:10:39.661Z,1013.77
2018-10-16T11:11:48.393Z,1013.75
2018-10-16T11:12:57.406Z,1013.79
2018-10-16T11:14:06.327Z,1013.78
2018-10-16T11:15:15.112Z,1013.77
2018-10-16T11:16:23.658Z,1013.79
2018-10-16T11:17:32.313Z,1013.77
2018-10-16T11:18:40.968Z,1013.77
2018-10-16T11:19:49.617Z,1013.76
2018-10-16T11:20:58.284Z,1013.74
2018-10-16T11:22:07.207Z,1013.73
2018-10-16T11:23:15.912Z,1013.74
2018-10-16T11:24:24.773Z,1013.74
2018-10-16T11:25:33.433Z,1013.77
2018-10-16T11:26:42.170Z,1013.77
2018-10-16T11:27:51.412Z,1013.75
2018-10-16T11:29:00.076Z,1013.76
2018-10-16T11:30:08.787Z,1013.77
2018-10-16T11:31:17.375Z,1013.75
2018-10-16T11:32:26.286Z,1013.75
2018-10-16T11:33:34.948Z,1013.75
2018-10-16T11:34:43.594Z,1013.75
2018-10-16T11:35:52.239Z,1013.73
2018-10-16T11:37:00.981Z,1013.73
2018-10-16T11:38:09.541Z,1013.75
2018-10-16T11:39:18.204Z,1013.77
2018-10-16T11:40:26.849Z,1013.77
2018-10-16T11:41:35.503Z,1013.74
2018-10-16T11:42:44.410Z,1013.75
2018-10-16T11:43:53.066Z,1013.76
2018-10-16T11:45:01.761Z,1013.71
2018-10-16T11:46:10.367Z,1013.76
2018-10-16T11:47:19.008Z,1013.77
2018-10-16T11:48:27.666Z,1013.78
2018-10-16T11:49:36.589Z,1013.77
2018-10-16T11:50:45.246Z,1013.77
2018-10-16T11:51:54.407Z,1013.76
2018-10-16T11:53:03.060Z,1013.76
2018-10-16T11:54:11.713Z,1013.78
2018-10-16T11:55:20.627Z,1013.79
2018-10-16T11:56:29.279Z,1013.78
2018-10-16T11:57:37.920Z,1013.81
2018-10-16T11:58:46.839Z,1013.77
2018-10-16T11:59:55.485Z,1013.81
2018-10-16T12:01:04.413Z,1013.78
2018-10-16T12:02:13.115Z,1013.77
2018-10-16T12:03:21.988Z,1013.78
2018-10-16T12:04:30.632Z,1013.78
2018-10-16T12:05:39.290Z,1013.78
2018-10-16T12:06:47.932Z,1013.75
2018-10-16T12:07:56.603Z,1013.76
2018-10-16T12:09:05.242Z,1013.75
2018-10-16T12:10:13.896Z,1013.72
2018-10-16T12:11:22.550Z,1013.74
2018-10-16T12:12:31.729Z,1013.75
2018-10-16T12:13:40.377Z,1013.76
2018-10-16T12:14:49.025Z,1013.79
2018-10-16T12:15:57.679Z,1013.77
2018-10-16T12:17:06.590Z,1013.78
2018-10-16T12:18:15.240Z,1013.76
2018-10-16T12:19:23.909Z,1013.73
2018-10-16T12:20:32.541Z,1013.72
2018-10-16T12:21:41.193Z,1013.72
2018-10-16T12:22:50.138Z,1013.73
2018-10-16T12:23:58.757Z,1013.73
2018-10-16T12:25:07.497Z,1013.69
2018-10-16T12:26:16.428Z,1013.69
2018-10-16T12:27:25.345Z,1013.7
2018-10-16T12:28:33.995Z,1013.7
2018-10-16T12:29:42.911Z,1013.69
2018-10-16T12:30:51.863Z,1013.7
2018-10-16T12:32:00.520Z,1013.7
2018-10-16T12:33:09.762Z,1013.69
2018-10-16T12:34:18.779Z,1013.69
2018-10-16T12:35:27.427Z,1013.66
2018-10-16T12:36:36.079Z,1013.67
2018-10-16T12:37:44.993Z,1013.66
2018-10-16T12:38:53.650Z,1013.65
2018-10-16T12:40:02.750Z,1013.64
2018-10-16T12:41:11.359Z,1013.67
2018-10-16T12:42:19.955Z,1013.66
2018-10-16T12:43:28.915Z,1013.67
2018-10-16T12:44:37.943Z,1013.69
2018-10-16T12:45:46.596Z,1013.69
2018-10-16T12:46:55.255Z,1013.67
2018-10-16T12:48:04.266Z,1013.71
2018-10-16T12:49:13.297Z,1013.69
2018-10-16T12:50:22.085Z,1013.64
2018-10-16T12:51:30.600Z,1013.66
2018-10-16T12:52:39.520Z,1013.66
2018-10-16T12:53:48.704Z,1013.66
2018-10-16T12:54:57.358Z,1013.69
2018-10-16T12:56:06.065Z,1013.66
2018-10-16T12:57:14.749Z,1013.73
2018-10-16T12:58:23.687Z,1013.69
2018-10-16T12:59:32.336Z,1013.69
2018-10-16T13:00:40.987Z,1013.67
2018-10-16T13:01:49.907Z,1013.65
2018-10-16T13:02:58.567Z,1013.66
2018-10-16T13:04:07.921Z,1013.66
2018-10-16T13:05:16.645Z,1013.66
2018-10-16T13:06:25.216Z,1013.69
2018-10-16T13:07:34.129Z,1013.67
2018-10-16T13:08:42.780Z,1013.69
2018-10-16T13:09:51.444Z,1013.7
2018-10-16T13:11:00.126Z,1013.7
2018-10-16T13:12:08.750Z,1013.7
2018-10-16T13:13:17.395Z,1013.73
2018-10-16T13:14:26.308Z,1013.71
2018-10-16T13:15:34.963Z,1013.69
2018-10-16T13:16:43.615Z,1013.69
2018-10-16T13:17:52.262Z,1013.68
2018-10-16T13:19:00.908Z,1013.71
2018-10-16T13:20:09.648Z,1013.7
2018-10-16T13:21:18.212Z,1013.66
2018-10-16T13:22:27.123Z,1013.67
2018-10-16T13:23:36.362Z,1013.67
2018-10-16T13:24:44.951Z,1013.66
2018-10-16T13:25:53.608Z,1013.66
2018-10-16T13:27:02.255Z,1013.63
2018-10-16T13:28:10.964Z,1013.61
2018-10-16T13:29:19.707Z,1013.6
2018-10-16T13:30:28.768Z,1013.57
2018-10-16T13:31:37.414Z,1013.59
2018-10-16T13:32:46.070Z,1013.58
2018-10-16T13:33:54.749Z,1013.61
2018-10-16T13:35:03.449Z,1013.54
2018-10-16T13:36:12.455Z,1013.6
2018-10-16T13:37:21.110Z,1013.58
2018-10-16T13:38:30.035Z,1013.55
2018-10-16T13:39:38.686Z,1013.59
2018-10-16T13:40:47.332Z,1013.55
2018-10-16T13:41:55.996Z,1013.57
2018-10-16T13:43:05.041Z,1013.59
2018-10-16T13:44:14.035Z,1013.6
2018-10-16T13:45:22.602Z,1013.59
2018-10-16T13:46:31.249Z,1013.57
2018-10-16T13:47:39.949Z,1013.56
2018-10-16T13:48:48.628Z,1013.58
2018-10-16T13:49:57.280Z,1013.59
2018-10-16T13:51:06.255Z,1013.57
2018-10-16T13:52:15.276Z,1013.59
2018-10-16T13:53:24.288Z,1013.59
2018-10-16T13:54:32.937Z,1013.59
2018-10-16T13:55:41.581Z,1013.59